Time;durP1;ratioP1;P1;durP2;ratioP2;P2;SDS_P1;SDS_P2;PMS_P1;PMS_P2;Temp;Humidity;BMP_temperature;BMP_pressure;BME280_temperature;BME280_humidity;BME280_pressure;Samples;Min_cycle;Max_cycle;Signal;HPM_P1;HPM_P2
2021/08/06 00:01:44;;;;;;;20.07;10.90;;;;;;;14.82;100.00;47789.13;5063338;28;20028;-67
2021/08/06 00:04:09;;;;;;;17.33;9.90;;;;;;;14.81;100.00;49115.94;5063016;28;20025;-66
2021/08/06 00:06:35;;;;;;;19.20;10.67;;;;;;;14.80;100.00;50111.13;5063335;28;20032;-66
2021/08/06 00:09:01;;;;;;;21.37;10.70;;;;;;;14.80;100.00;51440.13;5056014;28;20029;-66
2021/08/06 00:11:31;;;;;;;20.93;11.87;;;;;;;14.81;100.00;50776.69;5072821;28;20036;-66
2021/08/06 00:13:57;;;;;;;22.40;11.20;;;;;;;14.82;100.00;46793.72;5059869;28;20441;-67
2021/08/06 00:16:24;;;;;;;19.33;10.27;;;;;;;14.82;100.00;45799.00;5065233;28;20404;-66
2021/08/06 00:18:50;;;;;;;20.03;11.03;;;;;;;14.81;100.00;46461.56;5059950;28;20575;-66
2021/08/06 00:21:17;;;;;;;18.00;9.97;;;;;;;14.80;100.00;48119.28;5062012;28;20799;-66
2021/08/06 00:23:43;;;;;;;19.33;10.37;;;;;;;14.76;100.00;49111.56;5063244;28;20469;-66
2021/08/06 00:26:09;;;;;;;19.17;10.80;;;;;;;14.78;100.00;49777.28;5066185;28;20016;-66
2021/08/06 00:28:34;;;;;;;19.80;10.53;;;;;;;14.78;100.00;49445.28;5062670;28;20032;-66
2021/08/06 00:31:03;;;;;;;19.30;10.83;;;;;;;14.77;100.00;49444.41;5063440;28;20048;-66
2021/08/06 00:33:28;;;;;;;20.30;10.53;;;;;;;14.77;100.00;50440.53;5066200;28;20090;-66
2021/08/06 00:35:54;;;;;;;22.27;11.27;;;;;;;14.74;100.00;50438.28;5075892;28;20020;-66
2021/08/06 00:38:19;;;;;;;19.23;11.13;;;;;;;14.70;100.00;51430.56;5068706;28;20555;-66
2021/08/06 00:40:45;;;;;;;23.13;11.63;;;;;;;14.64;100.00;53087.00;5063016;28;20028;-66
2021/08/06 00:43:13;;;;;;;19.40;10.13;;;;;;;14.62;100.00;55079.31;5062017;28;20791;-66
2021/08/06 00:45:39;;;;;;;18.17;10.30;;;;;;;14.60;100.00;56407.47;5065310;28;20085;-66
2021/08/06 00:48:05;;;;;;;24.70;12.03;;;;;;;14.61;100.00;55410.34;5066940;28;20032;-67
2021/08/06 00:50:32;;;;;;;19.97;11.23;;;;;;;14.60;100.00;55409.84;5053347;28;20165;-67
2021/08/06 00:52:58;;;;;;;20.13;10.40;;;;;;;14.57;100.00;54409.66;5059468;28;20376;-67
2021/08/06 00:55:27;;;;;;;23.33;11.37;;;;;;;14.63;100.00;54747.84;5066037;28;20089;-66
2021/08/06 00:57:52;;;;;;;22.93;11.17;;;;;;;14.61;100.00;53416.00;5061884;28;20632;-67
2021/08/06 01:00:18;;;;;;;20.10;11.47;;;;;;;14.70;100.00;54088.78;5054742;28;20032;-66
2021/08/06 01:03:05;;;;;;;17.93;10.73;;;;;;;14.68;100.00;52093.06;5068846;28;20132;-67
2021/08/06 01:05:35;;;;;;;23.17;11.97;;;;;;;14.60;100.00;52751.00;5081090;22;20151;-66
2021/08/06 01:08:13;;;;;;;21.43;11.43;;;;;;;14.51;100.00;54403.41;5056241;28;20032;-66
2021/08/06 01:11:03;;;;;;;23.93;11.10;;;;;;;14.47;100.00;58389.69;5056865;28;20074;-66
2021/08/06 01:13:41;;;;;;;22.30;11.70;;;;;;;14.43;100.00;57388.16;5048657;28;20153;-66
2021/08/06 01:16:09;;;;;;;23.70;10.83;;;;;;;14.51;100.00;56398.50;5058647;28;20094;-66
2021/08/06 01:18:37;;;;;;;24.73;12.33;;;;;;;14.53;100.00;55403.00;5058677;28;20028;-66
2021/08/06 01:21:09;;;;;;;26.17;12.97;;;;;;;14.49;100.00;57726.88;5059277;28;20037;-66
2021/08/06 01:23:38;;;;;;;26.20;12.67;;;;;;;14.52;100.00;57396.75;5052323;28;20036;-66
2021/08/06 01:26:08;;;;;;;23.93;12.37;;;;;;;14.48;100.00;57060.63;5058737;28;20277;-66
2021/08/06 01:28:37;;;;;;;26.07;11.90;;;;;;;14.40;100.00;55722.19;5060000;28;20085;-66
2021/08/06 01:31:03;;;;;;;25.70;12.33;;;;;;;14.40;100.00;55722.69;5065348;28;20035;-66
2021/08/06 01:33:29;;;;;;;23.87;12.23;;;;;;;14.35;100.00;57048.06;5065721;28;20377;-66
2021/08/06 01:35:54;;;;;;;25.53;12.83;;;;;;;14.24;100.00;58034.00;5065487;28;20045;-66
2021/08/06 01:38:20;;;;;;;27.83;13.63;;;;;;;14.25;100.00;61362.72;5065581;28;20016;-66
2021/08/06 01:41:08;;;;;;;27.10;13.10;;;;;;;14.15;100.00;59022.94;5065218;28;20105;-66
2021/08/06 01:44:12;;;;;;;26.73;12.30;;;;;;;14.11;100.00;57688.25;5061905;28;20048;-66
2021/08/06 01:46:54;;;;;;;34.03;13.83;;;;;;;14.19;100.00;58361.44;5065476;28;20039;-66
2021/08/06 01:49:27;;;;;;;31.02;13.20;;;;;;;14.22;100.00;58031.94;5065241;28;20030;-66
2021/08/06 01:52:02;;;;;;;25.83;12.53;;;;;;;14.22;100.00;60027.75;5054623;28;20078;-66
2021/08/06 01:54:29;;;;;;;26.63;12.73;;;;;;;14.16;100.00;58358.34;5065070;28;20398;-66
2021/08/06 01:56:56;;;;;;;28.77;13.23;;;;;;;14.17;100.00;57694.34;5065960;28;20354;-66
2021/08/06 01:59:22;;;;;;;28.00;14.00;;;;;;;14.14;100.00;58689.34;5065662;28;20040;-66
2021/08/06 02:01:48;;;;;;;30.97;13.90;;;;;;;14.18;100.00;59691.38;5073148;28;20150;-66
2021/08/06 02:04:14;;;;;;;28.93;14.17;;;;;;;14.20;100.00;59027.63;5062073;28;20040;-66
2021/08/06 02:06:43;;;;;;;32.40;13.67;;;;;;;14.16;100.00;57693.31;5065745;28;20032;-66
2021/08/06 02:09:14;;;;;;;30.63;13.67;;;;;;;14.15;100.00;58689.84;5065405;28;20548;-66
2021/08/06 02:11:40;;;;;;;30.27;14.17;;;;;;;14.13;100.00;57358.34;5065130;28;20074;-66
2021/08/06 02:14:06;;;;;;;32.00;14.30;;;;;;;14.12;100.00;58354.22;5065342;28;20192;-66
2021/08/06 02:16:32;;;;;;;28.87;13.50;;;;;;;14.08;100.00;59348.78;5065922;28;20346;-66
2021/08/06 02:18:59;;;;;;;32.10;14.27;;;;;;;14.10;100.00;60015.09;5065089;28;20374;-66
2021/08/06 02:21:30;;;;;;;31.20;13.30;;;;;;;14.04;100.00;60009.81;5065154;28;20035;-66
2021/08/06 02:23:59;;;;;;;27.67;13.20;;;;;;;14.01;100.00;60671.97;5065119;28;20564;-66
2021/08/06 02:26:25;;;;;;;26.10;12.93;;;;;;;14.00;100.00;60670.38;5065934;28;20040;-66
2021/08/06 02:28:51;;;;;;;27.33;12.00;;;;;;;13.96;100.00;61332.03;5064543;28;20067;-66
2021/08/06 02:31:21;;;;;;;27.20;12.67;;;;;;;13.97;100.00;61998.63;5065145;28;20083;-66
2021/08/06 02:33:47;;;;;;;28.87;13.30;;;;;;;13.96;100.00;63328.94;5066136;28;20029;-66
2021/08/06 02:36:12;;;;;;;26.00;12.77;;;;;;;13.95;100.00;62661.53;5065427;28;20036;-66
2021/08/06 02:38:39;;;;;;;28.87;13.03;;;;;;;13.85;100.00;60987.00;5064971;28;20453;-66
2021/08/06 02:41:04;;;;;;;25.73;12.13;;;;;;;13.87;100.00;61987.19;5061973;28;20082;-66
2021/08/06 02:43:30;;;;;;;24.93;12.27;;;;;;;13.84;100.00;61651.78;5061423;28;20024;-66
2021/08/06 02:45:55;;;;;;;24.57;11.70;;;;;;;13.92;100.00;62325.94;5062228;28;20047;-66
2021/08/06 02:48:21;;;;;;;27.43;12.57;;;;;;;13.88;100.00;60990.19;5063026;28;20013;-66
2021/08/06 02:50:47;;;;;;;27.00;11.77;;;;;;;13.86;100.00;60655.97;5064938;28;20652;-66
2021/08/06 02:53:13;;;;;;;27.53;13.10;;;;;;;13.81;100.00;60982.69;5064899;28;20020;-66
2021/08/06 02:55:38;;;;;;;23.40;11.63;;;;;;;13.80;100.00;60982.16;5065460;28;20380;-66
2021/08/06 02:58:04;;;;;;;29.17;12.73;;;;;;;13.84;100.00;62317.22;5065247;28;20115;-66
2021/08/06 03:00:30;;;;;;;27.53;12.60;;;;;;;13.76;100.00;60645.84;5064984;28;20025;-66
2021/08/06 03:02:55;;;;;;;29.50;13.23;;;;;;;13.72;100.00;60641.06;5065111;28;20016;-66
2021/08/06 03:05:21;;;;;;;28.10;12.23;;;;;;;13.69;100.00;62300.81;5065380;28;20102;-66
2021/08/06 03:07:51;;;;;;;27.63;11.83;;;;;;;13.67;100.00;61300.78;5065538;28;20021;-66
2021/08/06 03:10:20;;;;;;;28.70;11.73;;;;;;;13.70;100.00;62302.44;5064799;28;20021;-66
2021/08/06 03:12:46;;;;;;;24.33;11.80;;;;;;;13.72;100.00;62304.63;5064710;28;20032;-66
2021/08/06 03:15:13;;;;;;;26.60;12.40;;;;;;;13.69;100.00;61968.69;5064790;28;20525;-66
2021/08/06 03:17:41;;;;;;;29.97;13.33;;;;;;;13.69;100.00;62634.03;5064691;28;20028;-66
2021/08/06 03:20:13;;;;;;;27.53;12.43;;;;;;;13.65;100.00;61964.34;5064529;28;20025;-66
2021/08/06 03:22:39;;;;;;;24.88;12.15;;;;;;;13.62;100.00;61960.53;5060034;28;20931;-66
2021/08/06 03:25:07;;;;;;;26.20;11.73;;;;;;;13.60;100.00;62623.59;5063651;28;20025;-66
2021/08/06 03:27:33;;;;;;;30.60;12.23;;;;;;;13.52;100.00;63280.63;5064122;28;20081;-66
2021/08/06 03:29:58;;;;;;;27.97;12.37;;;;;;;13.51;100.00;64277.13;5064240;28;20115;-66
2021/08/06 03:32:24;;;;;;;28.03;11.10;;;;;;;13.49;100.00;64941.00;5064580;28;20423;-66
2021/08/06 03:34:49;;;;;;;25.50;11.00;;;;;;;13.55;100.00;64614.44;5063564;28;20032;-66
2021/08/06 03:37:15;;;;;;;26.77;11.27;;;;;;;13.57;100.00;64283.88;5063945;28;20016;-66
2021/08/06 03:39:40;;;;;;;29.27;12.63;;;;;;;13.66;100.00;63628.94;5063914;28;20033;-66
2021/08/06 03:42:07;;;;;;;34.17;12.37;;;;;;;13.62;100.00;60298.47;5063976;28;20062;-66
2021/08/06 03:44:32;;;;;;;24.37;11.13;;;;;;;13.62;100.00;58968.47;5063239;28;20641;-66
2021/08/06 03:46:58;;;;;;;23.03;10.93;;;;;;;13.60;100.00;60961.28;5064236;28;20154;-66
2021/08/06 03:49:23;;;;;;;25.83;11.43;;;;;;;13.59;100.00;58965.38;5063695;28;20052;-66
2021/08/06 03:51:49;;;;;;;26.73;10.70;;;;;;;13.56;100.00;56969.19;5063223;28;20469;-65
2021/08/06 03:54:14;;;;;;;23.63;10.93;;;;;;;13.55;100.00;57300.28;5062620;28;20031;-66
2021/08/06 03:56:40;;;;;;;22.50;10.63;;;;;;;13.61;100.00;57306.34;5064036;28;20016;-66
2021/08/06 03:59:05;;;;;;;21.47;9.90;;;;;;;13.60;100.00;56973.22;5063614;28;20103;-66
2021/08/06 04:01:31;;;;;;;20.40;10.17;;;;;;;13.60;100.00;55313.63;5063529;28;20024;-66
2021/08/06 04:03:56;;;;;;;24.77;10.60;;;;;;;13.60;100.00;54317.47;5063155;28;20198;-66
2021/08/06 04:06:22;;;;;;;22.00;10.37;;;;;;;13.64;100.00;54985.09;5063849;28;20768;-65
2021/08/06 04:08:47;;;;;;;22.80;10.83;;;;;;;13.66;100.00;54323.22;5063497;28;20718;-66
2021/08/06 04:11:13;;;;;;;21.23;9.17;;;;;;;13.78;100.00;52675.44;5069220;28;20020;-66
2021/08/06 04:13:38;;;;;;;19.03;8.97;;;;;;;13.85;100.00;49365.44;5063404;28;20079;-67
2021/08/06 04:16:04;;;;;;;21.50;9.73;;;;;;;13.89;100.00;48042.72;5063102;28;20552;-66
2021/08/06 04:18:29;;;;;;;22.30;9.07;;;;;;;13.97;100.00;46393.28;5062928;28;20093;-66
2021/08/06 04:20:57;;;;;;;20.07;8.73;;;;;;;14.07;100.00;43089.59;5062803;28;20368;-66
2021/08/06 04:23:22;;;;;;;17.30;8.67;;;;;;;14.17;100.00;32850.25;5062720;28;20595;-66
2021/08/06 04:25:48;;;;;;;18.90;9.00;;;;;;;14.25;100.00;26918.94;5062840;28;20052;-66
2021/08/06 04:28:13;;;;;;;15.47;7.87;;;;;;;14.27;100.00;26919.97;5062511;28;20028;-66
2021/08/06 04:30:39;;;;;;;19.27;8.53;;;;;;;14.36;100.00;20011.09;5063508;28;20036;-66
2021/08/06 04:33:04;;;;;;;14.77;8.40;;;;;;;14.36;100.00;18038.66;5062973;28;20567;-66
2021/08/06 04:35:30;;;;;;;15.93;8.33;;;;;;;14.43;100.00;19684.75;5062756;28;20472;-66
2021/08/06 04:37:56;;;;;;;15.70;7.50;;;;;;;14.82;100.00;8201.72;5062981;28;20431;-66
2021/08/06 04:40:22;;;;;;;15.10;7.77;;;;;;;15.29;100.00;-19563.88;5062962;28;20024;-66
2021/08/06 04:42:48;;;;;;;21.97;7.60;;;;;;;15.78;100.00;-19576.72;5062735;28;20033;-66
2021/08/06 04:45:17;;;;;;;14.33;6.67;;;;;;;16.16;100.00;-19586.38;5062362;28;20021;-66
2021/08/06 04:47:47;;;;;;;15.40;7.27;;;;;;;16.40;100.00;-19592.53;5062485;28;20502;-66
2021/08/06 04:50:14;;;;;;;13.00;6.63;;;;;;;16.57;100.00;-19596.97;5062498;28;20028;-66
2021/08/06 04:52:41;;;;;;;11.13;5.87;;;;;;;16.84;100.00;-19603.91;5062554;28;20025;-66
2021/08/06 04:55:07;;;;;;;12.37;6.67;;;;;;;16.96;100.00;-19607.03;5062292;28;20561;-66
2021/08/06 04:57:35;;;;;;;11.67;6.30;;;;;;;17.20;100.00;-19613.03;5062194;28;20040;-66
2021/08/06 05:00:01;;;;;;;12.47;6.17;;;;;;;17.58;100.00;-19622.94;5062181;28;20461;-67
2021/08/06 05:02:26;;;;;;;10.57;5.60;;;;;;;17.91;100.00;-19631.31;5062331;28;20028;-67
2021/08/06 05:04:52;;;;;;;10.63;5.80;;;;;;;18.34;100.00;-19642.25;5061671;28;20056;-66
2021/08/06 05:07:18;;;;;;;10.17;5.40;;;;;;;18.61;100.00;-19649.16;5062497;28;20737;-67
2021/08/06 05:09:46;;;;;;;11.77;5.40;;;;;;;18.71;100.00;-19651.91;5062334;28;20111;-66
2021/08/06 05:12:13;;;;;;;10.40;5.57;;;;;;;18.65;100.00;-19650.19;5062459;28;20361;-67
2021/08/06 05:14:40;;;;;;;10.40;5.40;;;;;;;18.92;100.00;-19657.09;5062194;28;20020;-67
2021/08/06 05:17:06;;;;;;;12.03;5.33;;;;;;;18.32;100.00;-19641.72;5062058;28;20020;-66
2021/08/06 05:19:31;;;;;;;12.33;5.10;;;;;;;17.49;100.00;-19620.59;5061319;28;20017;-66
2021/08/06 05:21:56;;;;;;;9.03;5.17;;;;;;;16.93;100.00;-19606.25;5062835;28;20032;-66
2021/08/06 05:24:22;;;;;;;9.73;5.77;;;;;;;16.35;100.00;-19591.34;5062164;28;20091;-66
2021/08/06 05:26:47;;;;;;;10.17;5.63;;;;;;;16.07;100.00;-19584.03;5061714;28;20370;-66
2021/08/06 05:29:13;;;;;;;9.83;5.73;;;;;;;16.01;100.00;-19582.47;5062447;28;20036;-65
2021/08/06 05:31:38;;;;;;;11.43;6.70;;;;;;;16.05;100.00;-19583.50;5062637;28;20108;-66
2021/08/06 05:34:04;;;;;;;12.70;6.30;;;;;;;16.36;100.00;-19591.63;5062536;28;20031;-66
2021/08/06 05:36:29;;;;;;;11.03;6.13;;;;;;;16.85;100.00;-19604.16;5062782;28;20404;-66
2021/08/06 05:38:55;;;;;;;11.77;5.67;;;;;;;16.93;100.00;-19606.25;5062390;28;20025;-66
2021/08/06 05:41:20;;;;;;;10.60;5.63;;;;;;;17.15;100.00;-19611.84;5061677;28;20021;-66
2021/08/06 05:43:46;;;;;;;10.27;5.57;;;;;;;17.52;100.00;-19621.38;5062419;28;20033;-66
2021/08/06 05:46:11;;;;;;;10.47;5.40;;;;;;;18.01;100.00;-19633.78;5061613;28;20043;-66
2021/08/06 05:48:37;;;;;;;10.23;5.13;;;;;;;17.68;100.00;-19625.28;5061552;28;20070;-66
2021/08/06 05:51:02;;;;;;;9.13;4.90;;;;;;;17.35;100.00;-19616.81;5060884;28;20039;-66
2021/08/06 05:53:28;;;;;;;9.20;4.80;;;;;;;18.17;100.00;-19637.94;5061949;28;20023;-66
2021/08/06 05:55:54;;;;;;;8.63;5.03;;;;;;;18.70;100.00;-19651.63;5061394;28;20658;-67
2021/08/06 05:58:20;;;;;;;9.77;4.73;;;;;;;19.40;100.00;-19669.34;5061518;28;20028;-67
2021/08/06 06:00:45;;;;;;;7.20;4.23;;;;;;;20.18;100.00;-19689.50;5062385;28;20021;-67
2021/08/06 06:03:10;;;;;;;7.97;3.90;;;;;;;20.12;100.00;-19687.81;5062396;28;20422;-67
2021/08/06 06:05:36;;;;;;;7.88;4.15;;;;;;;19.44;100.00;-19670.38;5059982;28;20163;-67
2021/08/06 06:08:02;;;;;;;9.55;4.18;;;;;;;18.97;100.00;-19658.41;5067532;28;20400;-67
2021/08/06 06:10:29;;;;;;;6.57;3.90;;;;;;;18.86;100.00;-19655.53;5067482;28;20021;-66
2021/08/06 06:12:55;;;;;;;11.40;4.25;;;;;;;19.22;100.00;-19664.78;5061748;28;20025;-67
2021/08/06 06:15:21;;;;;;;8.35;3.92;;;;;;;19.80;100.00;-19679.75;5061723;28;20093;-67
2021/08/06 06:17:47;;;;;;;7.13;3.55;;;;;;;19.90;100.00;-19682.38;5065595;28;20560;-67
2021/08/06 06:20:14;;;;;;;7.53;3.83;;;;;;;20.09;100.00;-19687.16;5065557;28;20098;-67
2021/08/06 06:22:39;;;;;;;9.50;3.88;;;;;;;20.32;100.00;-19693.03;5065089;28;20377;-68
2021/08/06 06:25:06;;;;;;;6.43;3.63;;;;;;;20.16;100.00;-19688.88;5064883;28;20035;-68
2021/08/06 06:27:32;;;;;;;9.15;3.50;;;;;;;20.36;100.00;-19694.06;5065708;28;20159;-67
2021/08/06 06:29:57;;;;;;;6.28;3.55;;;;;;;20.07;100.00;-19686.66;5065421;28;20112;-67
2021/08/06 06:32:22;;;;;;;7.88;3.60;;;;;;;19.54;100.00;-19673.00;5065913;28;20035;-67
2021/08/06 06:34:48;;;;;;;5.90;3.53;;;;;;;19.27;100.00;-19666.22;5065486;28;20103;-67
2021/08/06 06:37:13;;;;;;;6.13;3.20;;;;;;;19.82;100.00;-19680.28;5065701;28;20112;-66
2021/08/06 06:39:39;;;;;;;5.60;3.30;;;;;;;21.00;100.00;-19710.44;5065316;28;20033;-68
2021/08/06 06:42:05;;;;;;;5.72;3.28;;;;;;;21.93;100.00;-19734.06;5065500;28;20708;-68
2021/08/06 06:44:30;;;;;;;9.02;3.50;;;;;;;22.20;100.00;-19741.06;5065286;28;20035;-68
2021/08/06 06:46:56;;;;;;;7.65;3.42;;;;;;;21.95;100.00;-19734.59;5065274;28;20024;-67
2021/08/06 06:49:21;;;;;;;5.65;3.00;;;;;;;20.84;100.00;-19706.28;5064876;28;20124;-67
2021/08/06 06:51:47;;;;;;;6.57;3.30;;;;;;;20.51;100.00;-19697.72;5065449;28;20020;-66
2021/08/06 06:54:12;;;;;;;5.38;3.00;;;;;;;20.36;100.00;-19694.06;5064309;28;20468;-67
2021/08/06 06:56:38;;;;;;;5.38;2.90;;;;;;;20.80;100.00;-19705.13;5065497;28;20024;-66
2021/08/06 06:59:03;;;;;;;6.90;2.90;;;;;;;20.90;100.00;-19707.72;5064511;28;20033;-66
2021/08/06 07:01:29;;;;;;;5.50;2.80;;;;;;;20.62;100.00;-19700.56;5064734;28;20036;-66
2021/08/06 07:03:54;;;;;;;6.38;3.10;;;;;;;20.90;100.00;-19707.84;5064645;28;20047;-67
2021/08/06 07:06:20;;;;;;;6.75;2.80;;;;;;;21.38;100.00;-19720.06;5064735;28;20100;-67
2021/08/06 07:08:46;;;;;;;9.10;2.80;;;;;;;23.07;100.00;-19763.09;5064535;28;20060;-68
2021/08/06 07:11:12;;;;;;;5.78;2.90;;;;;;;23.29;100.00;-19768.81;5064931;28;20067;-67
2021/08/06 07:13:38;;;;;;;4.55;2.65;;;;;;;23.25;100.00;-19767.75;5064934;28;20455;-67
2021/08/06 07:16:05;;;;;;;4.13;2.30;;;;;;;23.06;100.00;-19762.84;5064980;28;20622;-68
2021/08/06 07:18:31;;;;;;;5.57;2.38;;;;;;;23.41;100.00;-19771.78;5064831;28;20032;-68
2021/08/06 07:20:59;;;;;;;6.35;2.70;;;;;;;23.42;100.00;-19772.03;5051197;28;20145;-67
2021/08/06 07:23:24;;;;;;;5.90;2.45;;;;;;;23.58;100.00;-19776.06;5059737;28;20029;-68
2021/08/06 07:25:50;;;;;;;8.27;3.08;;;;;;;24.62;100.00;-19802.44;5064850;28;20024;-68
2021/08/06 07:28:15;;;;;;;5.05;2.05;;;;;;;25.41;91.47;-19822.59;5064311;28;20051;-68
2021/08/06 07:30:41;;;;;;;3.88;1.83;;;;;;;24.45;98.73;-19798.28;5064555;28;20048;-68
2021/08/06 07:33:06;;;;;;;5.97;2.03;;;;;;;24.98;90.74;-19811.59;5064750;28;20437;-68
2021/08/06 07:35:33;;;;;;;4.30;1.80;;;;;;;23.76;100.00;-19780.72;5064489;28;20013;-67
2021/08/06 07:38:01;;;;;;;4.20;2.10;;;;;;;23.11;100.00;-19764.13;5064435;28;20104;-67
2021/08/06 07:40:27;;;;;;;3.22;1.73;;;;;;;22.87;100.00;-19757.91;5064528;28;20067;-67
2021/08/06 07:42:54;;;;;;;4.40;2.15;;;;;;;22.77;100.00;-19755.44;5063871;28;20044;-67
2021/08/06 07:45:20;;;;;;;4.38;2.05;;;;;;;22.55;100.00;-19749.88;5051065;28;20060;-67
2021/08/06 07:47:46;;;;;;;3.38;1.90;;;;;;;22.25;100.00;-19742.09;5063843;28;20024;-67
2021/08/06 07:50:12;;;;;;;3.65;2.00;;;;;;;22.15;100.00;-19739.78;5050972;28;20041;-67
2021/08/06 07:52:38;;;;;;;7.32;1.85;;;;;;;22.40;100.00;-19746.00;5064083;28;20160;-66
2021/08/06 07:55:05;;;;;;;3.63;1.80;;;;;;;23.19;100.00;-19766.09;5064201;28;20149;-67
2021/08/06 07:57:31;;;;;;;4.10;1.75;;;;;;;23.60;100.00;-19776.69;5064457;28;20042;-67
2021/08/06 07:59:56;;;;;;;4.90;1.95;;;;;;;23.19;100.00;-19766.22;5063890;28;20028;-67
2021/08/06 08:02:23;;;;;;;4.50;2.30;;;;;;;22.40;100.00;-19746.13;5069209;28;20016;-67
2021/08/06 08:04:49;;;;;;;5.28;1.75;;;;;;;21.33;100.00;-19718.88;5063728;28;20036;-66
2021/08/06 08:07:14;;;;;;;4.97;2.10;;;;;;;21.27;100.00;-19717.19;5063785;28;20542;-67
2021/08/06 08:09:40;;;;;;;4.28;2.20;;;;;;;21.56;100.00;-19724.59;5063936;28;20048;-66
2021/08/06 08:12:06;;;;;;;4.47;2.28;;;;;;;22.55;100.00;-19749.75;5063522;28;20484;-66
2021/08/06 08:14:31;;;;;;;4.47;2.35;;;;;;;23.68;100.00;-19778.63;5063676;28;20027;-67
2021/08/06 08:16:57;;;;;;;3.85;2.00;;;;;;;23.68;99.97;-19778.63;5063838;28;20020;-68
2021/08/06 08:19:22;;;;;;;5.18;2.08;;;;;;;23.81;96.96;-19781.88;5063537;28;20153;-67
2021/08/06 08:21:48;;;;;;;4.10;2.40;;;;;;;24.03;95.48;-19787.44;5064002;28;20032;-67
2021/08/06 08:24:14;;;;;;;4.45;2.13;;;;;;;23.94;97.78;-19785.38;5058521;28;20561;-67
2021/08/06 08:26:40;;;;;;;4.57;1.95;;;;;;;23.71;100.00;-19779.41;5063741;28;20461;-67
2021/08/06 08:29:07;;;;;;;3.78;2.05;;;;;;;23.36;100.00;-19770.59;5063599;28;20102;-66
2021/08/06 08:31:33;;;;;;;4.90;2.22;;;;;;;22.98;100.00;-19760.78;5063500;28;20028;-66
2021/08/06 08:33:58;;;;;;;4.88;1.83;;;;;;;22.67;100.00;-19752.88;5063142;28;20376;-67
2021/08/06 08:36:24;;;;;;;4.43;2.10;;;;;;;21.83;100.00;-19731.47;5063490;28;20024;-67
2021/08/06 08:38:49;;;;;;;3.40;1.90;;;;;;;21.87;100.00;-19732.50;5062630;28;20024;-67
2021/08/06 08:41:15;;;;;;;3.80;1.60;;;;;;;21.86;100.00;-19732.38;5063629;28;20517;-66
2021/08/06 08:43:43;;;;;;;3.47;1.80;;;;;;;21.81;100.00;-19730.94;5074782;28;20424;-67
2021/08/06 08:46:12;;;;;;;3.45;2.00;;;;;;;20.64;100.00;-19701.09;5063431;28;20020;-66
2021/08/06 08:48:38;;;;;;;3.70;1.90;;;;;;;20.87;100.00;-19707.06;5063158;28;20040;-66
2021/08/06 08:51:03;;;;;;;4.13;1.77;;;;;;;20.84;100.00;-19706.28;5063176;28;20022;-66
2021/08/06 08:53:29;;;;;;;4.05;2.10;;;;;;;20.53;100.00;-19698.22;5062427;28;20020;-66
2021/08/06 08:55:56;;;;;;;5.53;2.30;;;;;;;20.21;100.00;-19690.16;5062696;28;20522;-67
2021/08/06 08:58:24;;;;;;;5.47;2.00;;;;;;;20.07;100.00;-19686.53;5062676;28;20050;-66
2021/08/06 09:00:50;;;;;;;4.03;2.30;;;;;;;21.09;100.00;-19712.53;5063252;28;20016;-67
2021/08/06 09:03:48;;;;;;;4.32;2.00;;;;;;;21.83;100.00;-19731.47;5062889;28;20089;-67
2021/08/06 09:06:15;;;;;;;5.50;1.90;;;;;;;22.99;100.00;-19761.03;5062014;28;20713;-67
2021/08/06 09:08:41;;;;;;;4.57;1.90;;;;;;;22.67;100.00;-19752.88;5062554;28;20406;-67
2021/08/06 09:11:30;;;;;;;3.03;1.63;;;;;;;22.52;100.00;-19749.22;5062530;28;20032;-66
2021/08/06 09:14:26;;;;;;;4.57;2.15;;;;;;;22.04;100.00;-19736.91;5061651;28;20035;-67
2021/08/06 09:17:09;;;;;;;5.20;2.58;;;;;;;21.50;100.00;-19723.16;5011456;28;20077;-66
2021/08/06 09:19:41;;;;;;;6.00;2.20;;;;;;;21.43;100.00;-19721.34;5012622;28;20045;-66
2021/08/06 09:22:11;;;;;;;4.38;2.47;;;;;;;21.38;100.00;-19720.06;5015515;28;20121;-66
2021/08/06 09:25:14;;;;;;;4.20;2.15;;;;;;;20.91;100.00;-19708.09;5019092;28;20562;-66
2021/08/06 09:27:59;;;;;;;4.78;2.25;;;;;;;20.78;100.00;-19704.72;5010201;28;20049;-66
2021/08/06 09:30:34;;;;;;;3.58;1.90;;;;;;;20.67;100.00;-19701.88;5019790;28;20053;-67
2021/08/06 09:33:00;;;;;;;5.78;2.30;;;;;;;20.79;100.00;-19704.97;5019557;28;20029;-66
2021/08/06 09:35:27;;;;;;;4.45;2.33;;;;;;;20.74;100.00;-19703.69;5019358;28;20048;-66
2021/08/06 09:37:54;;;;;;;4.13;2.22;;;;;;;20.95;100.00;-19709.00;5018532;28;20473;-66
2021/08/06 09:40:22;;;;;;;6.25;2.60;;;;;;;21.39;100.00;-19720.31;5013058;28;20055;-66
2021/08/06 09:42:59;;;;;;;4.45;2.50;;;;;;;21.25;100.00;-19716.81;5016947;28;20595;-67
2021/08/06 09:45:34;;;;;;;5.00;2.28;;;;;;;21.46;100.00;-19722.13;5018973;28;20029;-66
2021/08/06 09:48:01;;;;;;;4.10;2.00;;;;;;;21.30;100.00;-19718.09;5007781;28;20062;-66
2021/08/06 09:50:33;;;;;;;4.88;2.13;;;;;;;22.58;100.00;-19750.53;5010506;28;20533;-66
2021/08/06 09:52:59;;;;;;;3.78;2.13;;;;;;;22.90;100.00;-19758.69;5026838;28;20131;-67
2021/08/06 09:55:31;;;;;;;3.55;1.77;;;;;;;24.73;100.00;-19805.41;5066750;28;20123;-67
2021/08/06 09:57:58;;;;;;;;;;;;;;;24.03;100.00;-19787.56;5065808;28;20372;-67
2021/08/06 10:00:26;;;;;;;4.03;1.65;;;;;;;22.35;100.00;-19744.81;5066025;28;19942;-67
2021/08/06 10:02:52;;;;;;;3.33;1.73;;;;;;;21.46;100.00;-19722.13;5066142;28;20028;-67
2021/08/06 10:05:20;;;;;;;4.25;1.95;;;;;;;21.43;100.00;-19721.22;5066028;28;20577;-67
2021/08/06 10:07:57;;;;;;;4.32;1.98;;;;;;;20.86;100.00;-19706.69;5064964;28;20067;-67
2021/08/06 10:10:25;;;;;;;4.32;1.90;;;;;;;20.31;100.00;-19692.75;5072271;28;20112;-67
2021/08/06 10:12:52;;;;;;;3.90;2.20;;;;;;;20.02;100.00;-19685.34;5066187;28;20500;-67
2021/08/06 10:15:19;;;;;;;11.80;2.15;;;;;;;19.36;100.00;-19668.44;5066261;28;20755;-67
2021/08/06 10:17:45;;;;;;;5.38;2.50;;;;;;;18.55;100.00;-19647.72;5065799;28;20024;-67
2021/08/06 10:20:13;;;;;;;5.15;2.20;;;;;;;18.06;100.00;-19635.09;5065894;28;20025;-66
2021/08/06 10:22:40;;;;;;;5.25;2.90;;;;;;;17.72;100.00;18487.03;5061581;28;20029;-66
2021/08/06 10:25:09;;;;;;;4.63;2.63;;;;;;;17.47;100.00;45013.00;5065669;28;20032;-66
2021/08/06 10:27:37;;;;;;;4.77;2.80;;;;;;;17.31;100.00;63359.63;5065054;28;20043;-66
2021/08/06 10:30:11;;;;;;;3.63;1.83;;;;;;;17.26;100.00;72067.84;5065986;28;20127;-66
2021/08/06 10:32:38;;;;;;;4.13;2.30;;;;;;;17.29;100.00;79462.75;5065730;28;20031;-66
2021/08/06 10:35:12;;;;;;;3.30;1.70;;;;;;;17.22;100.00;80125.00;5065573;28;20032;-66
2021/08/06 10:37:58;;;;;;;3.63;1.83;;;;;;;17.24;100.00;84166.09;5065420;28;20016;-66
2021/08/06 10:40:56;;;;;;;5.13;2.10;;;;;;;17.31;100.00;88556.97;5053132;28;20033;-66
2021/08/06 10:43:58;;;;;;;3.57;1.70;;;;;;;17.26;100.00;86190.00;5042881;28;20040;-66
2021/08/06 10:46:24;;;;;;;4.43;1.63;;;;;;;17.31;100.00;87208.47;5062628;28;20519;-66
2021/08/06 10:48:52;;;;;;;3.57;1.60;;;;;;;17.45;100.00;88240.41;5064281;28;20073;-66
2021/08/06 10:51:30;;;;;;;3.13;1.40;;;;;;;17.61;100.00;85903.59;5063485;28;20032;-67
2021/08/06 10:54:23;;;;;;;3.43;1.30;;;;;;;17.81;100.00;78860.00;5064751;28;20032;-66
2021/08/06 10:56:49;;;;;;;2.53;1.33;;;;;;;18.29;100.00;70850.41;5041365;28;20604;-66
2021/08/06 10:59:14;;;;;;;2.23;1.20;;;;;;;18.68;100.00;41773.69;5061764;28;20028;-67
2021/08/06 11:01:50;;;;;;;2.30;1.07;;;;;;;18.89;100.00;-2924.66;5061675;28;20028;-67
2021/08/06 11:04:45;;;;;;;2.03;1.10;;;;;;;19.14;100.00;-13290.34;5050169;28;20063;-67
2021/08/06 11:07:31;;;;;;;2.37;1.10;;;;;;;19.17;100.00;-19663.50;5043278;28;20067;-68
2021/08/06 11:09:57;;;;;;;1.17;0.77;;;;;;;19.32;100.00;-19667.53;5060619;28;20032;-68
2021/08/06 11:12:31;;;;;;;1.83;1.10;;;;;;;19.43;100.00;-19670.13;5061439;28;20469;-68
2021/08/06 11:14:59;;;;;;;2.85;1.05;;;;;;;19.37;100.00;-19668.56;5062444;28;20056;-68
2021/08/06 11:17:34;;;;;;;2.30;1.10;;;;;;;19.58;100.00;-19674.16;5062596;28;20104;-68
2021/08/06 11:20:12;;;;;;;3.22;1.17;;;;;;;19.28;100.00;-19666.34;5062343;28;20683;-68